createdAt,value
2018-05-18T00:00:44.652Z,93.60
2018-05-18T00:03:11.094Z,93.60
2018-05-18T00:05:37.671Z,93.60
2018-05-18T00:08:04.090Z,93.50
2018-05-18T00:10:31.256Z,93.60
2018-05-18T00:12:57.645Z,93.60
2018-05-18T00:15:24.088Z,93.50
2018-05-18T00:17:50.530Z,93.40
2018-05-18T00:20:23.470Z,93.30
2018-05-18T00:22:49.944Z,93.30
2018-05-18T00:25:16.346Z,93.40
2018-05-18T00:27:42.765Z,93.40
2018-05-18T00:30:09.292Z,93.30
2018-05-18T00:32:35.704Z,93.20
2018-05-18T00:35:02.169Z,93.20
2018-05-18T00:37:28.567Z,93.10
2018-05-18T00:39:55.011Z,93.30
2018-05-18T00:42:22.119Z,93.20
2018-05-18T00:44:48.525Z,93.20
2018-05-18T00:47:14.998Z,93.30
2018-05-18T00:49:41.421Z,93.40
2018-05-18T00:52:08.567Z,93.30
2018-05-18T00:54:34.964Z,93.20
2018-05-18T00:57:01.379Z,93.30
2018-05-18T00:59:27.772Z,93.40
2018-05-18T01:01:54.174Z,93.30
2018-05-18T01:04:20.635Z,93.30
2018-05-18T01:06:47.044Z,93.30
2018-05-18T01:09:13.440Z,93.20
2018-05-18T01:11:39.834Z,93.30
2018-05-18T01:14:06.237Z,93.20
2018-05-18T01:16:32.650Z,93.30
2018-05-18T01:18:59.068Z,93.30
2018-05-18T01:21:25.479Z,93.40
2018-05-18T01:23:51.888Z,93.50
2018-05-18T01:26:19.098Z,93.80
2018-05-18T01:28:45.480Z,93.60
2018-05-18T01:31:11.878Z,93.40
2018-05-18T01:33:38.314Z,93.60
2018-05-18T01:36:04.775Z,93.50
2018-05-18T01:38:31.164Z,93.50
2018-05-18T01:40:57.556Z,93.50
2018-05-18T01:43:24.695Z,93.70
2018-05-18T01:45:51.838Z,93.70
2018-05-18T01:48:18.232Z,93.60
2018-05-18T01:50:44.623Z,93.40
2018-05-18T01:53:11.783Z,93.30
2018-05-18T01:55:38.369Z,93.30
2018-05-18T01:58:04.804Z,93.30
2018-05-18T02:00:31.262Z,93.30
2018-05-18T02:02:57.648Z,93.30
2018-05-18T02:05:24.049Z,93.20
2018-05-18T02:07:50.464Z,93.40
2018-05-18T02:10:17.749Z,93.30
2018-05-18T02:12:44.275Z,93.30
2018-05-18T02:15:10.706Z,93.30
2018-05-18T02:17:37.110Z,93.40
2018-05-18T02:20:04.348Z,93.70
2018-05-18T02:22:30.769Z,93.40
2018-05-18T02:24:57.195Z,93.30
2018-05-18T02:27:23.580Z,93.40
2018-05-18T02:29:50.733Z,93.40
2018-05-18T02:32:17.116Z,93.40
2018-05-18T02:34:43.509Z,93.30
2018-05-18T02:37:09.909Z,93.40
2018-05-18T02:39:36.305Z,93.50
2018-05-18T02:42:02.751Z,93.70
2018-05-18T02:44:29.154Z,93.50
2018-05-18T02:46:55.555Z,93.40
2018-05-18T02:49:22.839Z,93.50
2018-05-18T02:51:49.232Z,93.50
2018-05-18T02:54:16.376Z,93.40
2018-05-18T02:56:43.529Z,93.40
2018-05-18T02:59:10.657Z,93.40
2018-05-18T03:01:37.074Z,93.40
2018-05-18T03:04:03.475Z,93.50
2018-05-18T03:06:29.877Z,93.50
2018-05-18T03:08:57.641Z,93.50
2018-05-18T03:11:24.821Z,93.50
2018-05-18T03:13:51.227Z,93.50
2018-05-18T03:16:18.362Z,93.30
2018-05-18T03:18:44.811Z,93.30
2018-05-18T03:21:11.954Z,93.50
2018-05-18T03:23:39.092Z,93.50
2018-05-18T03:26:05.502Z,93.50
2018-05-18T03:28:31.911Z,93.50
2018-05-18T03:30:58.329Z,93.60
2018-05-18T03:33:24.710Z,93.60
2018-05-18T03:35:51.108Z,93.50
2018-05-18T03:38:17.510Z,93.50
2018-05-18T03:40:44.644Z,93.50
2018-05-18T03:43:11.798Z,93.60
2018-05-18T03:45:38.944Z,93.60
2018-05-18T03:48:05.335Z,93.50
2018-05-18T03:50:31.743Z,93.50
2018-05-18T03:52:58.279Z,93.60
2018-05-18T03:55:24.684Z,93.50
2018-05-18T03:57:51.819Z,93.70
2018-05-18T04:00:18.228Z,93.60
2018-05-18T04:02:56.911Z,93.60
2018-05-18T04:05:35.570Z,93.60
2018-05-18T04:08:06.870Z,93.60
2018-05-18T04:10:33.291Z,93.70
2018-05-18T04:13:00.425Z,93.60
2018-05-18T04:15:27.556Z,93.60
2018-05-18T04:17:53.936Z,93.60
2018-05-18T04:20:20.371Z,93.60
2018-05-18T04:22:46.818Z,93.60
2018-05-18T04:25:13.212Z,93.70
2018-05-18T04:27:39.604Z,93.70
2018-05-18T04:30:06.133Z,93.50
2018-05-18T04:32:33.972Z,93.60
2018-05-18T04:35:00.410Z,93.60
2018-05-18T04:37:26.814Z,93.50
2018-05-18T04:39:53.951Z,93.50
2018-05-18T04:42:20.364Z,93.60
2018-05-18T04:44:46.752Z,93.50
2018-05-18T04:47:13.138Z,93.50
2018-05-18T04:49:41.023Z,93.90
2018-05-18T04:52:08.172Z,93.70
2018-05-18T04:54:35.288Z,93.50
2018-05-18T04:57:01.672Z,93.50
2018-05-18T04:59:28.084Z,93.60
2018-05-18T05:01:54.506Z,93.60
2018-05-18T05:04:20.984Z,93.50
2018-05-18T05:06:47.388Z,93.50
2018-05-18T05:09:14.548Z,93.60
2018-05-18T05:11:40.994Z,93.70
2018-05-18T05:14:07.398Z,93.40
2018-05-18T05:16:33.793Z,93.60
2018-05-18T05:19:00.195Z,93.50
2018-05-18T05:21:26.692Z,93.60
2018-05-18T05:23:53.884Z,93.40
2018-05-18T05:26:20.374Z,93.40
2018-05-18T05:28:46.756Z,93.30
2018-05-18T05:31:13.173Z,93.40
2018-05-18T05:33:39.653Z,93.30
2018-05-18T05:36:07.543Z,93.20
2018-05-18T05:38:33.961Z,93.20
2018-05-18T05:41:00.363Z,93.30
2018-05-18T05:43:26.774Z,93.30
2018-05-18T05:45:53.167Z,93.00
2018-05-18T05:48:19.575Z,93.00
2018-05-18T05:50:46.020Z,93.00
2018-05-18T05:53:12.431Z,92.60
2018-05-18T05:55:38.874Z,92.80
2018-05-18T05:58:05.294Z,93.00
2018-05-18T06:00:31.712Z,92.60
2018-05-18T06:02:58.151Z,92.80
2018-05-18T06:05:24.682Z,92.50
2018-05-18T06:07:51.049Z,92.60
2018-05-18T06:10:18.952Z,92.40
2018-05-18T06:12:46.091Z,92.40
2018-05-18T06:15:12.677Z,92.40
2018-05-18T06:17:39.073Z,92.30
2018-05-18T06:20:06.223Z,91.90
2018-05-18T06:22:33.377Z,92.10
2018-05-18T06:25:00.517Z,91.90
2018-05-18T06:27:27.673Z,92.20
2018-05-18T06:29:54.806Z,92.00
2018-05-18T06:32:21.190Z,92.00
2018-05-18T06:34:47.865Z,92.00
2018-05-18T06:37:14.209Z,91.90
2018-05-18T06:39:41.361Z,92.20
2018-05-18T06:42:08.521Z,91.90
2018-05-18T06:44:35.681Z,91.90
2018-05-18T06:47:02.843Z,92.10
2018-05-18T06:49:29.248Z,92.10
2018-05-18T06:51:56.386Z,92.00
2018-05-18T06:54:22.853Z,92.10
2018-05-18T06:56:49.277Z,91.50
2018-05-18T06:59:15.674Z,91.10
2018-05-18T07:01:42.825Z,90.60
2018-05-18T07:04:09.308Z,90.60
2018-05-18T07:06:36.466Z,90.40
2018-05-18T07:09:03.031Z,90.40
2018-05-18T07:11:30.130Z,90.30
2018-05-18T07:13:56.532Z,90.30
2018-05-18T07:16:23.059Z,89.70
2018-05-18T07:18:49.445Z,90.20
2018-05-18T07:21:15.852Z,90.50
2018-05-18T07:23:43.054Z,90.30
2018-05-18T07:26:09.449Z,90.30
2018-05-18T07:28:36.570Z,88.60
2018-05-18T07:31:03.041Z,89.20
2018-05-18T07:33:29.421Z,89.20
2018-05-18T07:35:56.058Z,88.80
2018-05-18T07:38:22.478Z,88.60
2018-05-18T07:40:48.950Z,88.70
2018-05-18T07:43:16.100Z,88.50
2018-05-18T07:45:42.487Z,88.50
2018-05-18T07:48:08.886Z,88.10
2018-05-18T07:50:35.284Z,88.00
2018-05-18T07:53:01.684Z,87.90
2018-05-18T07:55:28.093Z,88.50
2018-05-18T07:57:54.500Z,89.30
2018-05-18T08:00:21.650Z,88.60
2018-05-18T08:02:48.804Z,88.20
2018-05-18T08:05:15.948Z,86.90
2018-05-18T08:07:43.137Z,86.70
2018-05-18T08:10:09.547Z,86.60
2018-05-18T08:12:36.738Z,86.70
2018-05-18T08:15:03.237Z,86.80
2018-05-18T08:17:29.564Z,87.50
2018-05-18T08:19:56.779Z,86.30
2018-05-18T08:22:23.188Z,86.30
2018-05-18T08:24:49.610Z,86.40
2018-05-18T08:27:21.769Z,85.30
2018-05-18T08:29:48.181Z,85.10
2018-05-18T08:32:15.313Z,84.90
2018-05-18T08:34:42.467Z,85.00
2018-05-18T08:37:09.639Z,83.60
2018-05-18T08:39:36.083Z,83.60
2018-05-18T08:42:02.517Z,86.00
2018-05-18T08:44:29.073Z,84.90
2018-05-18T08:46:55.493Z,82.90
2018-05-18T08:49:21.886Z,84.60
2018-05-18T08:51:49.030Z,83.20
2018-05-18T08:54:16.180Z,83.70
2018-05-18T08:56:43.327Z,84.70
2018-05-18T08:59:09.762Z,84.70
2018-05-18T09:01:36.168Z,84.60
2018-05-18T09:04:02.594Z,84.10
2018-05-18T09:06:29.018Z,85.30
2018-05-18T09:08:55.440Z,83.50
2018-05-18T09:11:21.866Z,83.70
2018-05-18T09:13:48.275Z,83.50
2018-05-18T09:16:15.426Z,82.70
2018-05-18T09:18:42.574Z,84.00
2018-05-18T09:21:09.718Z,81.70
2018-05-18T09:23:36.867Z,82.70
2018-05-18T09:26:04.038Z,82.60
2018-05-18T09:28:30.434Z,82.60
2018-05-18T09:30:57.583Z,83.40
2018-05-18T09:33:24.093Z,83.30
2018-05-18T09:35:50.520Z,81.80
2018-05-18T09:38:17.681Z,81.00
2018-05-18T09:40:44.098Z,81.00
2018-05-18T09:43:10.516Z,81.00
2018-05-18T09:45:36.978Z,82.00
2018-05-18T09:48:03.412Z,81.20
2018-05-18T09:50:29.834Z,82.20
2018-05-18T09:52:56.248Z,81.30
2018-05-18T09:55:22.775Z,82.80
2018-05-18T09:57:49.105Z,81.80
2018-05-18T10:00:15.540Z,81.70
2018-05-18T10:02:41.939Z,82.00
2018-05-18T10:05:08.335Z,81.00
2018-05-18T10:07:34.739Z,80.00
2018-05-18T10:10:01.171Z,81.30
2018-05-18T10:12:27.645Z,81.80
2018-05-18T10:14:54.443Z,81.00
2018-05-18T10:17:20.854Z,81.50
2018-05-18T10:19:47.984Z,79.70
2018-05-18T10:22:14.378Z,79.60
2018-05-18T10:24:40.787Z,79.70
2018-05-18T10:27:07.230Z,80.10
2018-05-18T10:29:33.633Z,79.80
2018-05-18T10:32:00.816Z,80.90
2018-05-18T10:34:27.359Z,80.80
2018-05-18T10:36:53.752Z,79.20
2018-05-18T10:39:20.950Z,82.50
2018-05-18T10:41:47.362Z,82.00
2018-05-18T10:44:13.759Z,81.40
2018-05-18T10:46:40.153Z,80.20
2018-05-18T10:49:06.559Z,81.40
2018-05-18T10:51:32.947Z,79.30
2018-05-18T10:53:59.349Z,80.50
2018-05-18T10:56:25.908Z,79.20
2018-05-18T10:58:53.824Z,79.30
2018-05-18T11:01:20.215Z,79.30
2018-05-18T11:03:48.155Z,81.00
2018-05-18T11:06:14.555Z,81.00
2018-05-18T11:08:41.702Z,78.60
2018-05-18T11:11:08.112Z,78.70
2018-05-18T11:13:34.511Z,76.40
2018-05-18T11:16:00.912Z,77.20
2018-05-18T11:18:27.314Z,77.50
2018-05-18T11:20:54.261Z,76.80
2018-05-18T11:23:21.427Z,77.70
2018-05-18T11:25:48.576Z,79.10
2018-05-18T11:28:15.733Z,74.70
2018-05-18T11:30:42.150Z,74.60
2018-05-18T11:33:09.388Z,77.10
2018-05-18T11:35:35.717Z,77.00
2018-05-18T11:38:02.942Z,76.00
2018-05-18T11:40:29.355Z,75.80
2018-05-18T11:42:55.760Z,76.90
2018-05-18T11:45:22.181Z,78.20
2018-05-18T11:47:49.319Z,75.10
2018-05-18T11:50:15.768Z,75.80
2018-05-18T11:52:42.924Z,77.30
2018-05-18T11:55:10.072Z,75.80
2018-05-18T11:57:36.496Z,75.70
2018-05-18T12:00:03.706Z,75.90
2018-05-18T12:02:30.204Z,75.90
2018-05-18T12:04:56.588Z,75.90
2018-05-18T12:07:24.494Z,74.10
2018-05-18T12:09:51.639Z,74.60
2018-05-18T12:12:18.842Z,73.90
2018-05-18T12:14:45.260Z,73.90
2018-05-18T12:17:11.664Z,73.20
2018-05-18T12:19:38.784Z,73.30
2018-05-18T12:22:05.949Z,73.20
2018-05-18T12:24:32.328Z,72.80
2018-05-18T12:26:58.761Z,75.90
2018-05-18T12:29:25.147Z,72.60
2018-05-18T12:31:52.631Z,70.00
2018-05-18T12:34:19.028Z,69.90
2018-05-18T12:36:46.152Z,67.30
2018-05-18T12:39:12.635Z,68.00
2018-05-18T12:41:39.040Z,70.80
2018-05-18T12:44:07.661Z,68.80
2018-05-18T12:46:34.118Z,68.70
2018-05-18T12:49:00.533Z,72.00
2018-05-18T12:51:26.943Z,72.10
2018-05-18T12:53:54.100Z,69.50
2018-05-18T12:56:20.505Z,69.60
2018-05-18T12:58:47.656Z,71.30
2018-05-18T13:01:15.598Z,69.50
2018-05-18T13:03:42.023Z,68.90
2018-05-18T13:06:10.620Z,69.40
2018-05-18T13:08:37.136Z,71.90
2018-05-18T13:11:03.519Z,68.40
2018-05-18T13:13:29.923Z,65.90
2018-05-18T13:15:56.336Z,66.60
2018-05-18T13:18:22.760Z,69.70
2018-05-18T13:20:49.163Z,68.30
2018-05-18T13:23:16.292Z,68.80
2018-05-18T13:25:42.672Z,68.80
2018-05-18T13:28:09.068Z,67.70
2018-05-18T13:30:36.293Z,67.80
2018-05-18T13:33:03.361Z,66.50
2018-05-18T13:35:29.740Z,66.50
2018-05-18T13:37:56.142Z,66.80
2018-05-18T13:40:23.286Z,67.10
2018-05-18T13:42:50.418Z,62.40
2018-05-18T13:45:16.822Z,62.10
2018-05-18T13:47:43.227Z,65.00
2018-05-18T13:50:09.682Z,65.60
2018-05-18T13:52:36.119Z,68.80
2018-05-18T13:55:02.561Z,67.40
2018-05-18T13:57:28.976Z,69.70
2018-05-18T13:59:55.368Z,64.90
2018-05-18T14:02:22.524Z,66.80
2018-05-18T14:04:48.935Z,66.80
2018-05-18T14:07:15.415Z,64.80
2018-05-18T14:09:41.850Z,66.60
2018-05-18T14:12:08.448Z,67.70
2018-05-18T14:14:36.319Z,66.30
2018-05-18T14:17:03.480Z,68.90
2018-05-18T14:19:30.650Z,69.40
2018-05-18T14:21:57.043Z,69.40
2018-05-18T14:24:23.442Z,70.00
2018-05-18T14:26:49.864Z,71.00
2018-05-18T14:29:16.266Z,70.60
2018-05-18T14:31:43.492Z,65.60
2018-05-18T14:34:09.838Z,65.50
2018-05-18T14:36:36.996Z,65.20
2018-05-18T14:39:04.523Z,65.20
2018-05-18T14:41:30.911Z,65.50
2018-05-18T14:43:57.411Z,67.60
2018-05-18T14:46:23.760Z,67.10
2018-05-18T14:48:50.886Z,68.10
2018-05-18T14:51:18.052Z,66.60
2018-05-18T14:53:45.194Z,69.10
2018-05-18T14:56:12.352Z,69.20
2018-05-18T14:58:39.549Z,68.40
2018-05-18T15:01:06.645Z,64.20
2018-05-18T15:03:33.042Z,64.00
2018-05-18T15:05:59.448Z,61.60
2018-05-18T15:08:25.949Z,61.40
2018-05-18T15:10:52.737Z,61.00
2018-05-18T15:13:19.128Z,63.40
2018-05-18T15:15:46.271Z,67.60
2018-05-18T15:18:13.418Z,70.90
2018-05-18T15:20:40.577Z,69.50
2018-05-18T15:23:07.771Z,69.40
2018-05-18T15:25:34.212Z,69.20
2018-05-18T15:28:00.611Z,69.90
2018-05-18T15:30:27.013Z,70.10
2018-05-18T15:32:54.157Z,65.70
2018-05-18T15:35:20.577Z,65.60
2018-05-18T15:37:46.976Z,63.00
2018-05-18T15:40:13.433Z,63.00
2018-05-18T15:42:39.852Z,66.00
2018-05-18T15:45:06.279Z,70.60
2018-05-18T15:47:32.677Z,73.50
2018-05-18T15:49:59.830Z,77.20
2018-05-18T15:52:26.252Z,77.30
2018-05-18T15:54:53.399Z,79.40
2018-05-18T15:57:20.649Z,82.50
2018-05-18T15:59:47.016Z,82.40
2018-05-18T16:02:13.606Z,84.10
2018-05-18T16:04:40.061Z,85.30
2018-05-18T16:07:07.248Z,86.60
2018-05-18T16:09:33.791Z,86.50
2018-05-18T16:12:00.257Z,88.70
2018-05-18T16:14:26.664Z,89.10
2018-05-18T16:16:53.072Z,89.40
2018-05-18T16:19:19.463Z,90.30
2018-05-18T16:21:45.878Z,90.40
2018-05-18T16:24:12.285Z,89.80
2018-05-18T16:26:38.666Z,90.30
2018-05-18T16:29:05.079Z,90.50
2018-05-18T16:31:31.498Z,90.90
2018-05-18T16:33:57.897Z,91.00
2018-05-18T16:36:24.432Z,91.00
2018-05-18T16:38:50.818Z,91.50
2018-05-18T16:41:17.217Z,91.70
2018-05-18T16:43:43.640Z,91.80
2018-05-18T16:46:10.070Z,91.70
2018-05-18T16:48:36.467Z,90.60
2018-05-18T16:51:02.911Z,90.00
2018-05-18T16:53:30.051Z,87.60
2018-05-18T16:55:57.194Z,86.70
2018-05-18T16:58:24.418Z,84.60
2018-05-18T17:00:50.831Z,84.90
2018-05-18T17:03:17.231Z,81.70
2018-05-18T17:05:43.638Z,81.30
2018-05-18T17:08:10.027Z,81.90
2018-05-18T17:10:36.462Z,81.10
2018-05-18T17:13:02.964Z,81.50
2018-05-18T17:15:30.145Z,81.70
2018-05-18T17:17:56.679Z,81.60
2018-05-18T17:20:23.111Z,81.80
2018-05-18T17:22:49.534Z,82.20
2018-05-18T17:25:15.930Z,81.20
2018-05-18T17:27:43.077Z,82.20
2018-05-18T17:30:09.475Z,82.10
2018-05-18T17:32:35.887Z,81.80
2018-05-18T17:35:02.327Z,81.80
2018-05-18T17:37:28.737Z,81.50
2018-05-18T17:39:55.877Z,81.30
2018-05-18T17:42:23.089Z,81.60
2018-05-18T17:44:49.454Z,81.50
2018-05-18T17:47:16.607Z,81.50
2018-05-18T17:49:43.756Z,81.30
2018-05-18T17:52:10.895Z,82.60
2018-05-18T17:54:38.059Z,82.70
2018-05-18T17:57:05.212Z,82.50
2018-05-18T17:59:32.951Z,82.10
2018-05-18T18:02:00.110Z,82.00
2018-05-18T18:04:26.524Z,81.30
2018-05-18T18:06:52.947Z,81.40
2018-05-18T18:09:19.405Z,81.90
2018-05-18T18:11:45.829Z,82.70
2018-05-18T18:14:13.006Z,81.10
2018-05-18T18:16:44.056Z,81.90
2018-05-18T18:19:10.544Z,81.90
2018-05-18T18:21:37.735Z,82.90
2018-05-18T18:24:06.134Z,82.70
2018-05-18T18:26:32.613Z,82.60
2018-05-18T18:28:59.101Z,83.00
2018-05-18T18:31:26.461Z,83.00
2018-05-18T18:33:52.935Z,83.20
2018-05-18T18:36:20.147Z,83.60
2018-05-18T18:38:46.587Z,83.60
2018-05-18T18:41:13.021Z,83.50
2018-05-18T18:43:39.480Z,84.00
2018-05-18T18:46:07.279Z,84.20
2018-05-18T18:48:34.471Z,84.50
2018-05-18T18:51:00.932Z,84.50
2018-05-18T18:53:27.383Z,85.00
2018-05-18T18:55:53.811Z,85.20
2018-05-18T18:58:20.242Z,85.70
2018-05-18T19:00:47.119Z,85.70
2018-05-18T19:03:14.268Z,85.90
2018-05-18T19:05:41.450Z,86.10
2018-05-18T19:08:07.957Z,86.00
2018-05-18T19:10:34.393Z,86.60
2018-05-18T19:13:00.833Z,87.70
2018-05-18T19:15:27.262Z,87.00
2018-05-18T19:17:53.737Z,86.40
2018-05-18T19:20:20.152Z,86.20
2018-05-18T19:22:48.297Z,86.50
2018-05-18T19:25:16.336Z,86.30
2018-05-18T19:27:42.797Z,86.20
2018-05-18T19:30:10.047Z,86.90
2018-05-18T19:32:37.188Z,87.00
2018-05-18T19:35:04.338Z,87.70
2018-05-18T19:37:31.500Z,86.90
2018-05-18T19:39:58.643Z,87.60
2018-05-18T19:42:25.796Z,87.70
2018-05-18T19:44:53.021Z,87.30
2018-05-18T19:47:19.438Z,87.30
2018-05-18T19:49:45.837Z,87.10
2018-05-18T19:52:13.095Z,87.30
2018-05-18T19:54:40.470Z,87.30
2018-05-18T19:57:06.852Z,87.80
2018-05-18T19:59:33.995Z,88.90
2018-05-18T20:02:01.426Z,88.20
2018-05-18T20:04:27.818Z,88.30
2018-05-18T20:06:54.194Z,89.40
2018-05-18T20:09:20.582Z,89.70
2018-05-18T20:11:47.068Z,90.00
2018-05-18T20:14:14.953Z,90.00
2018-05-18T20:16:42.108Z,89.90
2018-05-18T20:19:09.252Z,90.20
2018-05-18T20:21:35.672Z,90.00
2018-05-18T20:24:02.090Z,90.00
2018-05-18T20:26:28.520Z,89.90
2018-05-18T20:28:55.094Z,89.60
2018-05-18T20:31:21.581Z,89.70
2018-05-18T20:33:48.099Z,90.00
2018-05-18T20:36:14.517Z,90.00
2018-05-18T20:38:40.915Z,90.10
2018-05-18T20:41:08.207Z,89.50
2018-05-18T20:43:34.626Z,90.00
2018-05-18T20:46:01.891Z,89.90
2018-05-18T20:48:28.293Z,90.00
2018-05-18T20:50:54.693Z,90.20
2018-05-18T20:53:21.109Z,90.20
2018-05-18T20:55:47.556Z,90.00
2018-05-18T20:58:13.999Z,90.20
2018-05-18T21:00:40.391Z,90.40
2018-05-18T21:03:06.803Z,90.30
2018-05-18T21:05:34.993Z,90.40
2018-05-18T21:08:02.336Z,90.40
2018-05-18T21:10:29.480Z,90.50
2018-05-18T21:12:56.038Z,90.50
2018-05-18T21:15:22.441Z,90.50
2018-05-18T21:17:49.577Z,90.70
2018-05-18T21:20:16.086Z,90.40
2018-05-18T21:22:42.479Z,90.50
2018-05-18T21:25:08.888Z,90.40
2018-05-18T21:27:36.033Z,90.50
2018-05-18T21:30:03.195Z,90.80
2018-05-18T21:32:30.327Z,90.60
2018-05-18T21:34:56.775Z,90.60
2018-05-18T21:37:23.257Z,90.70
2018-05-18T21:39:49.665Z,90.70
2018-05-18T21:42:16.066Z,90.70
2018-05-18T21:44:43.216Z,90.70
2018-05-18T21:47:09.621Z,90.70
2018-05-18T21:49:36.022Z,90.80
2018-05-18T21:52:02.429Z,90.70
2018-05-18T21:54:29.566Z,90.70
2018-05-18T21:56:56.701Z,90.90
2018-05-18T21:59:24.590Z,90.60
2018-05-18T22:01:51.728Z,90.50
2018-05-18T22:04:18.900Z,90.70
2018-05-18T22:06:46.057Z,90.90
2018-05-18T22:09:12.461Z,90.90
2018-05-18T22:11:39.593Z,90.70
2018-05-18T22:14:06.026Z,90.70
2018-05-18T22:16:32.413Z,90.50
2018-05-18T22:18:58.855Z,90.50
2018-05-18T22:21:25.272Z,90.50
2018-05-18T22:23:51.692Z,90.50
2018-05-18T22:26:18.902Z,90.40
2018-05-18T22:28:46.078Z,90.50
2018-05-18T22:31:12.486Z,90.50
2018-05-18T22:33:38.884Z,90.30
2018-05-18T22:36:05.361Z,90.50
2018-05-18T22:38:31.852Z,90.40
2018-05-18T22:40:58.274Z,90.60
2018-05-18T22:43:24.675Z,90.60
2018-05-18T22:45:51.829Z,90.70
2018-05-18T22:48:18.239Z,90.60
2018-05-18T22:50:44.649Z,90.50
2018-05-18T22:53:11.053Z,90.40
2018-05-18T22:55:37.468Z,90.60
2018-05-18T22:58:04.620Z,90.50
2018-05-18T23:00:31.783Z,90.70
2018-05-18T23:02:58.184Z,90.70
2018-05-18T23:05:24.656Z,90.80
2018-05-18T23:07:51.048Z,90.90
2018-05-18T23:10:17.451Z,90.90
2018-05-18T23:12:43.851Z,91.00
2018-05-18T23:15:10.249Z,91.10
2018-05-18T23:17:36.651Z,91.00
2018-05-18T23:20:03.084Z,91.10
2018-05-18T23:22:29.530Z,91.40
2018-05-18T23:24:55.936Z,91.20
2018-05-18T23:27:22.391Z,91.00
2018-05-18T23:29:49.580Z,90.90
2018-05-18T23:32:16.727Z,90.50
2018-05-18T23:34:43.871Z,90.90
2018-05-18T23:37:11.024Z,90.90
2018-05-18T23:39:38.242Z,90.70
2018-05-18T23:42:04.755Z,90.70
2018-05-18T23:44:31.170Z,90.60
2018-05-18T23:46:57.636Z,90.40
2018-05-18T23:49:24.047Z,90.30
2018-05-18T23:51:50.449Z,90.50
2018-05-18T23:54:17.602Z,90.60
2018-05-18T23:56:44.744Z,90.50
2018-05-18T23:59:11.887Z,90.50
